sensor_id;sensor_type;location;lat;lon;timestamp;P1;durP1;ratioP1;P2;durP2;ratioP2
47545;SDS011;50104;52.002;4.688;2023-03-15T00:01:40;1.73;;;0.57;;
47545;SDS011;50104;52.002;4.688;2023-03-15T00:06:41;3.57;;;1.00;;
47545;SDS011;50104;52.002;4.688;2023-03-15T00:11:41;1.83;;;0.60;;
47545;SDS011;50104;52.002;4.688;2023-03-15T00:16:43;1.43;;;0.60;;
47545;SDS011;50104;52.002;4.688;2023-03-15T00:21:44;1.03;;;0.50;;
47545;SDS011;50104;52.002;4.688;2023-03-15T00:26:45;2.80;;;0.80;;
47545;SDS011;50104;52.002;4.688;2023-03-15T00:31:45;1.43;;;1.10;;
47545;SDS011;50104;52.002;4.688;2023-03-15T00:36:46;1.17;;;0.83;;
47545;SDS011;50104;52.002;4.688;2023-03-15T00:41:47;3.77;;;1.10;;
47545;SDS011;50104;52.002;4.688;2023-03-15T00:46:48;5.53;;;1.00;;
47545;SDS011;50104;52.002;4.688;2023-03-15T00:51:49;3.47;;;0.90;;
47545;SDS011;50104;52.002;4.688;2023-03-15T00:56:55;0.87;;;0.63;;
47545;SDS011;50104;52.002;4.688;2023-03-15T01:01:56;1.67;;;0.90;;
47545;SDS011;50104;52.002;4.688;2023-03-15T01:06:57;1.10;;;1.00;;
47545;SDS011;50104;52.002;4.688;2023-03-15T01:11:58;0.70;;;0.70;;
47545;SDS011;50104;52.002;4.688;2023-03-15T01:16:59;3.13;;;0.87;;
47545;SDS011;50104;52.002;4.688;2023-03-15T01:22:00;1.13;;;0.80;;
47545;SDS011;50104;52.002;4.688;2023-03-15T01:27:01;0.90;;;0.90;;
47545;SDS011;50104;52.002;4.688;2023-03-15T01:32:02;2.87;;;0.70;;
47545;SDS011;50104;52.002;4.688;2023-03-15T01:37:04;1.37;;;0.77;;
47545;SDS011;50104;52.002;4.688;2023-03-15T01:42:06;1.03;;;0.70;;
47545;SDS011;50104;52.002;4.688;2023-03-15T01:47:09;3.60;;;0.80;;
47545;SDS011;50104;52.002;4.688;2023-03-15T01:52:11;2.97;;;1.10;;
47545;SDS011;50104;52.002;4.688;2023-03-15T01:57:24;2.30;;;0.77;;
47545;SDS011;50104;52.002;4.688;2023-03-15T02:02:35;2.97;;;0.60;;
47545;SDS011;50104;52.002;4.688;2023-03-15T02:07:46;1.73;;;1.20;;
47545;SDS011;50104;52.002;4.688;2023-03-15T02:12:53;1.38;;;1.25;;
47545;SDS011;50104;52.002;4.688;2023-03-15T02:17:56;1.80;;;1.30;;
47545;SDS011;50104;52.002;4.688;2023-03-15T02:22:57;1.10;;;1.00;;
47545;SDS011;50104;52.002;4.688;2023-03-15T02:33:11;2.83;;;1.50;;
47545;SDS011;50104;52.002;4.688;2023-03-15T02:38:28;3.10;;;1.60;;
47545;SDS011;50104;52.002;4.688;2023-03-15T02:43:29;2.20;;;1.30;;
47545;SDS011;50104;52.002;4.688;2023-03-15T02:48:32;2.80;;;1.47;;
47545;SDS011;50104;52.002;4.688;2023-03-15T02:53:34;2.00;;;1.30;;
47545;SDS011;50104;52.002;4.688;2023-03-15T02:58:36;3.57;;;1.77;;
47545;SDS011;50104;52.002;4.688;2023-03-15T03:03:37;2.40;;;1.57;;
47545;SDS011;50104;52.002;4.688;2023-03-15T03:08:41;2.20;;;1.50;;
47545;SDS011;50104;52.002;4.688;2023-03-15T03:13:46;3.43;;;1.60;;
47545;SDS011;50104;52.002;4.688;2023-03-15T03:18:46;2.20;;;1.40;;
47545;SDS011;50104;52.002;4.688;2023-03-15T03:23:47;1.67;;;1.50;;
47545;SDS011;50104;52.002;4.688;2023-03-15T03:28:48;2.13;;;1.63;;
47545;SDS011;50104;52.002;4.688;2023-03-15T03:33:49;4.70;;;1.40;;
47545;SDS011;50104;52.002;4.688;2023-03-15T03:38:51;4.63;;;1.60;;
47545;SDS011;50104;52.002;4.688;2023-03-15T03:43:52;4.93;;;1.40;;
47545;SDS011;50104;52.002;4.688;2023-03-15T03:48:53;8.00;;;1.80;;
47545;SDS011;50104;52.002;4.688;2023-03-15T03:53:55;5.10;;;2.57;;
47545;SDS011;50104;52.002;4.688;2023-03-15T03:58:55;2.27;;;0.80;;
47545;SDS011;50104;52.002;4.688;2023-03-15T04:03:56;2.10;;;0.30;;
47545;SDS011;50104;52.002;4.688;2023-03-15T04:08:58;1.33;;;0.80;;
47545;SDS011;50104;52.002;4.688;2023-03-15T04:14:01;1.27;;;1.03;;
47545;SDS011;50104;52.002;4.688;2023-03-15T04:19:03;4.00;;;1.03;;
47545;SDS011;50104;52.002;4.688;2023-03-15T04:24:04;5.20;;;0.90;;
47545;SDS011;50104;52.002;4.688;2023-03-15T04:29:07;7.23;;;0.90;;
47545;SDS011;50104;52.002;4.688;2023-03-15T04:34:10;3.80;;;0.77;;
47545;SDS011;50104;52.002;4.688;2023-03-15T04:39:12;3.27;;;0.90;;
47545;SDS011;50104;52.002;4.688;2023-03-15T04:44:13;0.97;;;0.80;;
47545;SDS011;50104;52.002;4.688;2023-03-15T04:49:15;0.90;;;0.90;;
47545;SDS011;50104;52.002;4.688;2023-03-15T04:54:16;2.10;;;1.10;;
47545;SDS011;50104;52.002;4.688;2023-03-15T04:59:16;3.23;;;1.00;;
47545;SDS011;50104;52.002;4.688;2023-03-15T05:04:17;1.83;;;1.10;;
47545;SDS011;50104;52.002;4.688;2023-03-15T05:09:22;1.97;;;1.27;;
47545;SDS011;50104;52.002;4.688;2023-03-15T05:14:24;0.97;;;0.90;;
47545;SDS011;50104;52.002;4.688;2023-03-15T05:19:25;3.77;;;1.00;;
47545;SDS011;50104;52.002;4.688;2023-03-15T05:24:26;4.60;;;0.97;;
47545;SDS011;50104;52.002;4.688;2023-03-15T05:29:27;1.63;;;1.10;;
47545;SDS011;50104;52.002;4.688;2023-03-15T05:34:28;1.67;;;0.90;;
47545;SDS011;50104;52.002;4.688;2023-03-15T05:39:31;1.03;;;1.03;;
47545;SDS011;50104;52.002;4.688;2023-03-15T05:44:33;2.00;;;1.10;;
47545;SDS011;50104;52.002;4.688;2023-03-15T05:49:34;1.33;;;1.20;;
47545;SDS011;50104;52.002;4.688;2023-03-15T05:54:37;3.43;;;1.40;;
47545;SDS011;50104;52.002;4.688;2023-03-15T05:59:38;2.03;;;1.20;;
47545;SDS011;50104;52.002;4.688;2023-03-15T06:04:39;3.80;;;1.23;;
47545;SDS011;50104;52.002;4.688;2023-03-15T06:09:40;1.77;;;1.40;;
47545;SDS011;50104;52.002;4.688;2023-03-15T06:14:43;3.13;;;1.23;;
47545;SDS011;50104;52.002;4.688;2023-03-15T06:19:44;5.57;;;1.60;;
47545;SDS011;50104;52.002;4.688;2023-03-15T06:24:45;2.50;;;1.50;;
47545;SDS011;50104;52.002;4.688;2023-03-15T06:29:47;5.20;;;1.47;;
47545;SDS011;50104;52.002;4.688;2023-03-15T06:34:49;11.00;;;2.03;;
47545;SDS011;50104;52.002;4.688;2023-03-15T06:39:51;5.73;;;1.57;;
47545;SDS011;50104;52.002;4.688;2023-03-15T06:44:53;4.73;;;2.27;;
47545;SDS011;50104;52.002;4.688;2023-03-15T06:49:54;7.70;;;2.40;;
47545;SDS011;50104;52.002;4.688;2023-03-15T06:54:55;4.30;;;2.00;;
47545;SDS011;50104;52.002;4.688;2023-03-15T06:59:55;4.43;;;1.77;;
47545;SDS011;50104;52.002;4.688;2023-03-15T07:04:56;5.27;;;2.07;;
47545;SDS011;50104;52.002;4.688;2023-03-15T07:09:57;3.33;;;2.03;;
47545;SDS011;50104;52.002;4.688;2023-03-15T07:14:58;5.57;;;1.93;;
47545;SDS011;50104;52.002;4.688;2023-03-15T07:19:59;11.97;;;2.37;;
47545;SDS011;50104;52.002;4.688;2023-03-15T07:25:00;10.47;;;2.80;;
47545;SDS011;50104;52.002;4.688;2023-03-15T07:30:01;14.93;;;4.63;;
47545;SDS011;50104;52.002;4.688;2023-03-15T07:35:03;8.10;;;2.93;;
47545;SDS011;50104;52.002;4.688;2023-03-15T07:40:05;8.70;;;2.77;;
47545;SDS011;50104;52.002;4.688;2023-03-15T07:45:09;6.97;;;2.73;;
47545;SDS011;50104;52.002;4.688;2023-03-15T07:50:11;4.03;;;2.50;;
47545;SDS011;50104;52.002;4.688;2023-03-15T07:55:11;4.80;;;2.13;;
47545;SDS011;50104;52.002;4.688;2023-03-15T08:00:12;3.57;;;2.23;;
47545;SDS011;50104;52.002;4.688;2023-03-15T08:05:14;14.30;;;3.23;;
47545;SDS011;50104;52.002;4.688;2023-03-15T08:10:18;6.67;;;2.63;;
47545;SDS011;50104;52.002;4.688;2023-03-15T08:15:18;4.03;;;1.90;;
47545;SDS011;50104;52.002;4.688;2023-03-15T08:20:20;10.53;;;3.00;;
47545;SDS011;50104;52.002;4.688;2023-03-15T08:25:22;9.90;;;2.53;;
47545;SDS011;50104;52.002;4.688;2023-03-15T08:30:25;5.00;;;2.37;;
47545;SDS011;50104;52.002;4.688;2023-03-15T08:35:26;5.67;;;1.97;;
47545;SDS011;50104;52.002;4.688;2023-03-15T08:40:27;7.60;;;1.80;;
47545;SDS011;50104;52.002;4.688;2023-03-15T08:45:29;9.13;;;2.23;;
47545;SDS011;50104;52.002;4.688;2023-03-15T08:50:30;4.43;;;1.57;;
47545;SDS011;50104;52.002;4.688;2023-03-15T08:55:31;4.33;;;1.50;;
47545;SDS011;50104;52.002;4.688;2023-03-15T09:00:33;4.53;;;2.00;;
47545;SDS011;50104;52.002;4.688;2023-03-15T09:05:34;1.57;;;1.47;;
47545;SDS011;50104;52.002;4.688;2023-03-15T09:10:36;2.13;;;1.00;;
47545;SDS011;50104;52.002;4.688;2023-03-15T09:15:37;8.73;;;1.50;;
47545;SDS011;50104;52.002;4.688;2023-03-15T09:20:41;11.52;;;1.92;;
47545;SDS011;50104;52.002;4.688;2023-03-15T09:25:41;6.65;;;1.73;;
47545;SDS011;50104;52.002;4.688;2023-03-15T09:30:42;3.30;;;1.20;;
47545;SDS011;50104;52.002;4.688;2023-03-15T09:35:43;1.92;;;0.90;;
47545;SDS011;50104;52.002;4.688;2023-03-15T09:40:46;4.85;;;1.40;;
47545;SDS011;50104;52.002;4.688;2023-03-15T09:46:06;7.80;;;1.10;;
47545;SDS011;50104;52.002;4.688;2023-03-15T09:51:34;3.75;;;1.40;;
47545;SDS011;50104;52.002;4.688;2023-03-15T09:57:33;3.28;;;1.30;;
47545;SDS011;50104;52.002;4.688;2023-03-15T10:02:57;3.60;;;1.42;;
47545;SDS011;50104;52.002;4.688;2023-03-15T10:08:02;3.45;;;1.05;;
47545;SDS011;50104;52.002;4.688;2023-03-15T10:13:30;7.40;;;1.02;;
47545;SDS011;50104;52.002;4.688;2023-03-15T10:30:26;5.15;;;1.45;;
47545;SDS011;50104;52.002;4.688;2023-03-15T10:35:32;3.13;;;0.82;;
47545;SDS011;50104;52.002;4.688;2023-03-15T10:40:53;5.55;;;1.02;;
47545;SDS011;50104;52.002;4.688;2023-03-15T10:45:58;5.90;;;1.23;;
47545;SDS011;50104;52.002;4.688;2023-03-15T10:51:26;2.25;;;0.80;;
47545;SDS011;50104;52.002;4.688;2023-03-15T10:56:31;4.97;;;1.17;;
47545;SDS011;50104;52.002;4.688;2023-03-15T11:01:37;3.30;;;0.80;;
47545;SDS011;50104;52.002;4.688;2023-03-15T11:06:39;8.55;;;1.08;;
47545;SDS011;50104;52.002;4.688;2023-03-15T11:11:54;5.45;;;1.40;;
47545;SDS011;50104;52.002;4.688;2023-03-15T11:16:59;3.38;;;0.90;;
47545;SDS011;50104;52.002;4.688;2023-03-15T11:22:01;4.32;;;1.08;;
47545;SDS011;50104;52.002;4.688;2023-03-15T11:27:05;4.63;;;0.68;;
47545;SDS011;50104;52.002;4.688;2023-03-15T11:32:14;4.40;;;1.05;;
47545;SDS011;50104;52.002;4.688;2023-03-15T11:37:21;3.88;;;1.15;;
47545;SDS011;50104;52.002;4.688;2023-03-15T11:43:05;2.70;;;0.80;;
47545;SDS011;50104;52.002;4.688;2023-03-15T11:53:46;4.22;;;0.98;;
47545;SDS011;50104;52.002;4.688;2023-03-15T12:14:35;4.40;;;0.80;;
47545;SDS011;50104;52.002;4.688;2023-03-15T12:19:36;1.48;;;0.60;;
47545;SDS011;50104;52.002;4.688;2023-03-15T12:24:37;3.25;;;0.90;;
47545;SDS011;50104;52.002;4.688;2023-03-15T12:29:39;3.72;;;0.73;;
47545;SDS011;50104;52.002;4.688;2023-03-15T12:34:47;2.03;;;0.90;;
47545;SDS011;50104;52.002;4.688;2023-03-15T12:39:57;3.17;;;1.20;;
47545;SDS011;50104;52.002;4.688;2023-03-15T12:55:42;1.48;;;1.30;;
47545;SDS011;50104;52.002;4.688;2023-03-15T13:00:44;4.40;;;1.60;;
47545;SDS011;50104;52.002;4.688;2023-03-15T13:22:41;2.17;;;1.17;;
47545;SDS011;50104;52.002;4.688;2023-03-15T13:28:33;3.03;;;1.08;;
47545;SDS011;50104;52.002;4.688;2023-03-15T13:33:38;1.65;;;0.80;;
47545;SDS011;50104;52.002;4.688;2023-03-15T13:38:48;2.65;;;1.10;;
47545;SDS011;50104;52.002;4.688;2023-03-15T13:43:52;1.83;;;1.02;;
47545;SDS011;50104;52.002;4.688;2023-03-15T13:48:56;5.60;;;1.20;;
47545;SDS011;50104;52.002;4.688;2023-03-15T13:54:02;2.72;;;0.93;;
47545;SDS011;50104;52.002;4.688;2023-03-15T13:59:11;1.73;;;1.00;;
47545;SDS011;50104;52.002;4.688;2023-03-15T14:04:14;2.97;;;0.73;;
47545;SDS011;50104;52.002;4.688;2023-03-15T14:09:22;5.07;;;0.98;;
47545;SDS011;50104;52.002;4.688;2023-03-15T14:14:28;1.10;;;0.70;;
47545;SDS011;50104;52.002;4.688;2023-03-15T14:19:32;1.42;;;0.52;;
47545;SDS011;50104;52.002;4.688;2023-03-15T14:24:35;3.10;;;0.52;;
47545;SDS011;50104;52.002;4.688;2023-03-15T14:29:44;1.63;;;0.50;;
47545;SDS011;50104;52.002;4.688;2023-03-15T14:34:58;1.67;;;0.63;;
47545;SDS011;50104;52.002;4.688;2023-03-15T14:40:43;1.05;;;0.40;;
47545;SDS011;50104;52.002;4.688;2023-03-15T14:45:45;1.40;;;0.70;;
47545;SDS011;50104;52.002;4.688;2023-03-15T14:50:47;1.50;;;0.50;;
47545;SDS011;50104;52.002;4.688;2023-03-15T14:55:48;2.53;;;0.70;;
47545;SDS011;50104;52.002;4.688;2023-03-15T15:00:50;0.55;;;0.40;;
47545;SDS011;50104;52.002;4.688;2023-03-15T15:05:53;0.60;;;0.60;;
47545;SDS011;50104;52.002;4.688;2023-03-15T15:10:54;1.55;;;0.60;;
47545;SDS011;50104;52.002;4.688;2023-03-15T15:15:56;3.72;;;0.70;;
47545;SDS011;50104;52.002;4.688;2023-03-15T15:20:58;2.50;;;0.85;;
47545;SDS011;50104;52.002;4.688;2023-03-15T15:26:02;1.65;;;0.88;;
47545;SDS011;50104;52.002;4.688;2023-03-15T15:31:05;4.55;;;1.00;;
47545;SDS011;50104;52.002;4.688;2023-03-15T15:36:09;2.13;;;1.25;;
47545;SDS011;50104;52.002;4.688;2023-03-15T15:41:28;1.33;;;0.80;;
47545;SDS011;50104;52.002;4.688;2023-03-15T15:46:33;0.82;;;0.80;;
47545;SDS011;50104;52.002;4.688;2023-03-15T15:51:37;1.65;;;1.02;;
47545;SDS011;50104;52.002;4.688;2023-03-15T15:56:44;2.65;;;1.00;;
47545;SDS011;50104;52.002;4.688;2023-03-15T16:01:52;1.52;;;0.80;;
47545;SDS011;50104;52.002;4.688;2023-03-15T16:06:55;4.55;;;1.00;;
47545;SDS011;50104;52.002;4.688;2023-03-15T16:12:01;3.97;;;1.10;;
47545;SDS011;50104;52.002;4.688;2023-03-15T16:17:08;1.05;;;0.95;;
47545;SDS011;50104;52.002;4.688;2023-03-15T16:22:21;3.17;;;1.47;;
47545;SDS011;50104;52.002;4.688;2023-03-15T16:27:23;4.13;;;1.40;;
47545;SDS011;50104;52.002;4.688;2023-03-15T16:32:26;3.70;;;1.80;;
47545;SDS011;50104;52.002;4.688;2023-03-15T16:37:30;3.45;;;2.25;;
47545;SDS011;50104;52.002;4.688;2023-03-15T16:42:32;3.05;;;2.03;;
47545;SDS011;50104;52.002;4.688;2023-03-15T16:47:33;3.15;;;2.10;;
47545;SDS011;50104;52.002;4.688;2023-03-15T16:52:34;6.13;;;2.10;;
47545;SDS011;50104;52.002;4.688;2023-03-15T16:57:35;4.05;;;2.92;;
47545;SDS011;50104;52.002;4.688;2023-03-15T17:02:36;3.13;;;2.58;;
47545;SDS011;50104;52.002;4.688;2023-03-15T17:07:38;2.63;;;2.42;;
47545;SDS011;50104;52.002;4.688;2023-03-15T17:12:40;4.53;;;2.42;;
47545;SDS011;50104;52.002;4.688;2023-03-15T17:17:42;3.10;;;2.30;;
47545;SDS011;50104;52.002;4.688;2023-03-15T17:22:43;3.67;;;2.50;;
47545;SDS011;50104;52.002;4.688;2023-03-15T17:27:45;3.22;;;2.22;;
47545;SDS011;50104;52.002;4.688;2023-03-15T17:32:47;4.75;;;2.65;;
47545;SDS011;50104;52.002;4.688;2023-03-15T17:37:48;3.50;;;3.20;;
47545;SDS011;50104;52.002;4.688;2023-03-15T17:42:51;3.00;;;2.70;;
47545;SDS011;50104;52.002;4.688;2023-03-15T17:47:54;3.53;;;2.60;;
47545;SDS011;50104;52.002;4.688;2023-03-15T17:52:57;3.15;;;2.85;;
47545;SDS011;50104;52.002;4.688;2023-03-15T17:58:08;4.10;;;2.75;;
47545;SDS011;50104;52.002;4.688;2023-03-15T18:03:13;2.92;;;2.55;;
47545;SDS011;50104;52.002;4.688;2023-03-15T18:08:17;3.22;;;2.85;;
47545;SDS011;50104;52.002;4.688;2023-03-15T18:13:22;3.65;;;2.95;;
47545;SDS011;50104;52.002;4.688;2023-03-15T18:18:25;5.38;;;3.17;;
47545;SDS011;50104;52.002;4.688;2023-03-15T18:23:26;4.55;;;3.75;;
47545;SDS011;50104;52.002;4.688;2023-03-15T18:28:27;5.72;;;3.70;;
47545;SDS011;50104;52.002;4.688;2023-03-15T18:33:28;7.75;;;4.30;;
47545;SDS011;50104;52.002;4.688;2023-03-15T18:38:30;5.80;;;4.82;;
47545;SDS011;50104;52.002;4.688;2023-03-15T18:43:31;5.05;;;4.15;;
47545;SDS011;50104;52.002;4.688;2023-03-15T18:48:32;5.00;;;4.60;;
47545;SDS011;50104;52.002;4.688;2023-03-15T18:53:33;6.38;;;5.15;;
47545;SDS011;50104;52.002;4.688;2023-03-15T18:58:34;4.57;;;3.38;;
47545;SDS011;50104;52.002;4.688;2023-03-15T19:03:34;4.60;;;4.13;;
47545;SDS011;50104;52.002;4.688;2023-03-15T19:08:35;5.75;;;4.45;;
47545;SDS011;50104;52.002;4.688;2023-03-15T19:13:37;5.63;;;4.15;;
47545;SDS011;50104;52.002;4.688;2023-03-15T19:18:38;8.88;;;7.03;;
47545;SDS011;50104;52.002;4.688;2023-03-15T19:23:41;23.65;;;18.45;;
47545;SDS011;50104;52.002;4.688;2023-03-15T19:28:42;14.80;;;12.63;;
47545;SDS011;50104;52.002;4.688;2023-03-15T19:33:43;7.28;;;6.57;;
47545;SDS011;50104;52.002;4.688;2023-03-15T19:38:44;6.50;;;4.85;;
47545;SDS011;50104;52.002;4.688;2023-03-15T19:43:45;4.75;;;4.30;;
47545;SDS011;50104;52.002;4.688;2023-03-15T19:48:46;6.32;;;4.35;;
47545;SDS011;50104;52.002;4.688;2023-03-15T19:53:47;5.43;;;3.92;;
47545;SDS011;50104;52.002;4.688;2023-03-15T19:58:48;4.43;;;3.90;;
47545;SDS011;50104;52.002;4.688;2023-03-15T20:03:50;5.97;;;3.72;;
47545;SDS011;50104;52.002;4.688;2023-03-15T20:08:51;4.55;;;3.80;;
47545;SDS011;50104;52.002;4.688;2023-03-15T20:13:51;4.72;;;3.70;;
47545;SDS011;50104;52.002;4.688;2023-03-15T20:18:53;3.65;;;3.03;;
47545;SDS011;50104;52.002;4.688;2023-03-15T20:23:55;4.63;;;3.20;;
47545;SDS011;50104;52.002;4.688;2023-03-15T20:28:56;3.53;;;3.22;;
47545;SDS011;50104;52.002;4.688;2023-03-15T20:33:57;4.15;;;3.30;;
47545;SDS011;50104;52.002;4.688;2023-03-15T20:38:58;4.60;;;4.00;;
47545;SDS011;50104;52.002;4.688;2023-03-15T20:43:59;4.40;;;3.92;;
47545;SDS011;50104;52.002;4.688;2023-03-15T20:49:00;5.05;;;3.72;;
47545;SDS011;50104;52.002;4.688;2023-03-15T20:54:01;3.60;;;3.30;;
47545;SDS011;50104;52.002;4.688;2023-03-15T20:59:02;4.50;;;3.97;;
47545;SDS011;50104;52.002;4.688;2023-03-15T21:04:03;6.32;;;4.57;;
47545;SDS011;50104;52.002;4.688;2023-03-15T21:09:04;5.57;;;4.57;;
47545;SDS011;50104;52.002;4.688;2023-03-15T21:14:05;5.30;;;4.03;;
47545;SDS011;50104;52.002;4.688;2023-03-15T21:19:06;6.78;;;4.80;;
47545;SDS011;50104;52.002;4.688;2023-03-15T21:24:09;6.22;;;4.90;;
47545;SDS011;50104;52.002;4.688;2023-03-15T21:29:13;6.85;;;5.07;;
47545;SDS011;50104;52.002;4.688;2023-03-15T21:34:14;6.50;;;5.13;;
47545;SDS011;50104;52.002;4.688;2023-03-15T21:39:15;6.20;;;5.20;;
47545;SDS011;50104;52.002;4.688;2023-03-15T21:44:16;6.85;;;4.78;;
47545;SDS011;50104;52.002;4.688;2023-03-15T21:49:20;7.30;;;5.07;;
47545;SDS011;50104;52.002;4.688;2023-03-15T21:54:21;7.55;;;5.15;;
47545;SDS011;50104;52.002;4.688;2023-03-15T21:59:22;6.38;;;5.28;;
47545;SDS011;50104;52.002;4.688;2023-03-15T22:04:26;6.65;;;5.32;;
47545;SDS011;50104;52.002;4.688;2023-03-15T22:09:27;5.10;;;4.50;;
47545;SDS011;50104;52.002;4.688;2023-03-15T22:14:28;6.47;;;5.00;;
47545;SDS011;50104;52.002;4.688;2023-03-15T22:19:29;6.78;;;4.93;;
47545;SDS011;50104;52.002;4.688;2023-03-15T22:24:31;7.80;;;4.57;;
47545;SDS011;50104;52.002;4.688;2023-03-15T22:29:33;6.03;;;4.75;;
47545;SDS011;50104;52.002;4.688;2023-03-15T22:34:35;6.32;;;4.95;;
47545;SDS011;50104;52.002;4.688;2023-03-15T22:39:36;5.55;;;4.60;;
47545;SDS011;50104;52.002;4.688;2023-03-15T22:44:37;7.18;;;4.68;;
47545;SDS011;50104;52.002;4.688;2023-03-15T22:49:38;7.25;;;4.97;;
47545;SDS011;50104;52.002;4.688;2023-03-15T22:54:38;9.02;;;4.32;;
47545;SDS011;50104;52.002;4.688;2023-03-15T22:59:42;5.25;;;4.22;;
47545;SDS011;50104;52.002;4.688;2023-03-15T23:04:43;4.78;;;4.25;;
47545;SDS011;50104;52.002;4.688;2023-03-15T23:09:44;6.43;;;4.05;;
47545;SDS011;50104;52.002;4.688;2023-03-15T23:14:45;4.22;;;3.78;;
47545;SDS011;50104;52.002;4.688;2023-03-15T23:19:48;4.57;;;3.95;;
47545;SDS011;50104;52.002;4.688;2023-03-15T23:24:49;4.28;;;3.67;;
47545;SDS011;50104;52.002;4.688;2023-03-15T23:29:50;6.32;;;4.60;;
47545;SDS011;50104;52.002;4.688;2023-03-15T23:34:51;3.92;;;3.63;;
47545;SDS011;50104;52.002;4.688;2023-03-15T23:39:52;5.60;;;3.88;;
47545;SDS011;50104;52.002;4.688;2023-03-15T23:44:54;8.15;;;4.00;;
47545;SDS011;50104;52.002;4.688;2023-03-15T23:49:54;4.55;;;3.33;;
47545;SDS011;50104;52.002;4.688;2023-03-15T23:54:58;4.90;;;4.10;;
47545;SDS011;50104;52.002;4.688;2023-03-15T23:59:59;5.63;;;4.40;;
